createdAt,value
2022-08-22T00:01:30.070Z,95937.44
2022-08-22T00:03:02.139Z,95947.66
2022-08-22T00:04:15.456Z,95933.81
2022-08-22T00:06:53.795Z,95946.91
2022-08-22T00:09:32.339Z,95943.81
2022-08-22T00:12:09.594Z,95933.88
2022-08-22T00:14:45.043Z,95916.34
2022-08-22T00:17:44.412Z,95933.63
2022-08-22T00:20:19.962Z,95937.03
2022-08-22T00:22:59.949Z,95937.38
2022-08-22T00:25:38.642Z,95949.47
2022-08-22T00:28:11.378Z,95931.16
2022-08-22T00:30:48.619Z,95943.19
2022-08-22T00:33:23.286Z,95921.22
2022-08-22T00:36:02.444Z,95928.03
2022-08-22T00:38:34.779Z,95934.06
2022-08-22T00:41:11.283Z,95930.94
2022-08-22T00:44:01.048Z,95919.72
2022-08-22T00:47:12.064Z,95932.25
2022-08-22T00:50:07.829Z,95924.13
2022-08-22T00:52:56.176Z,95923.88
2022-08-22T00:55:46.106Z,95934.63
2022-08-22T00:58:37.240Z,95921.81
2022-08-22T01:01:08.061Z,95923.66
2022-08-22T01:03:52.900Z,95913.97
2022-08-22T01:06:31.067Z,95922.91
2022-08-22T01:09:08.269Z,95928.91
2022-08-22T01:11:55.489Z,95917.66
2022-08-22T01:14:47.619Z,95923.69
2022-08-22T01:17:47.432Z,95926.06
2022-08-22T01:20:55.806Z,95918.19
2022-08-22T01:24:05.488Z,95905.94
2022-08-22T01:27:15.433Z,95914.31
2022-08-22T01:30:13.877Z,95915.06
2022-08-22T01:33:16.731Z,95909.59
2022-08-22T01:36:13.683Z,95900.94
2022-08-22T01:38:57.411Z,95910.63
2022-08-22T01:41:40.503Z,95908.78
2022-08-22T01:44:36.208Z,95905.91
2022-08-22T01:47:12.339Z,95898.59
2022-08-22T01:49:45.230Z,95907.72
2022-08-22T01:52:19.744Z,95901.19
2022-08-22T01:54:54.617Z,95904.06
2022-08-22T01:57:23.506Z,95905.91
2022-08-22T01:59:53.664Z,95902.22
2022-08-22T02:02:32.669Z,95905.34
2022-08-22T02:05:07.579Z,95898.81
2022-08-22T02:07:50.404Z,95901.72
2022-08-22T02:10:23.691Z,95905.63
2022-08-22T02:13:03.459Z,95891.75
2022-08-22T02:15:45.326Z,95906.91
2022-08-22T02:18:21.356Z,95904.03
2022-08-22T02:21:03.648Z,95893.31
2022-08-22T02:23:45.465Z,95900.09
2022-08-22T02:26:18.004Z,95879.16
2022-08-22T02:28:57.297Z,95885.41
2022-08-22T02:31:36.447Z,95888.28
2022-08-22T02:34:21.273Z,95886.69
2022-08-22T02:36:54.562Z,95877.78
2022-08-22T02:39:36.715Z,95885.59
2022-08-22T02:42:18.855Z,95892.91
2022-08-22T02:44:56.541Z,95896.03
2022-08-22T02:47:32.884Z,95895.19
2022-08-22T02:50:12.685Z,95890.75
2022-08-22T02:52:55.688Z,95892.59
2022-08-22T02:55:37.038Z,95891.34
2022-08-22T02:58:09.547Z,95894.69
2022-08-22T03:00:48.316Z,95882.31
2022-08-22T03:03:22.000Z,95882.31
2022-08-22T03:06:01.323Z,95875.78
2022-08-22T03:08:32.394Z,95875.31
2022-08-22T03:11:12.859Z,95865.34
2022-08-22T03:13:54.656Z,95866.03
2022-08-22T03:16:32.012Z,95865.47
2022-08-22T03:19:05.467Z,95857.22
2022-08-22T03:21:37.753Z,95861.56
2022-08-22T03:24:13.315Z,95849.25
2022-08-22T03:26:51.268Z,95855.00
2022-08-22T03:29:23.099Z,95857.56
2022-08-22T03:32:08.789Z,95845.56
2022-08-22T03:34:37.740Z,95848.19
2022-08-22T03:37:13.972Z,95850.00
2022-08-22T03:39:56.043Z,95845.03
2022-08-22T03:42:56.699Z,95839.31
2022-08-22T03:45:56.589Z,95841.91
2022-08-22T03:48:46.177Z,95831.41
2022-08-22T03:51:31.322Z,95842.84
2022-08-22T03:54:43.688Z,95843.34
2022-08-22T03:57:45.706Z,95831.59
2022-08-22T04:00:40.338Z,95839.22
2022-08-22T04:03:41.491Z,95832.56
2022-08-22T04:06:49.280Z,95834.69
2022-08-22T04:09:52.251Z,95837.25
2022-08-22T04:12:49.367Z,95834.50
2022-08-22T04:15:37.399Z,95844.16
2022-08-22T04:18:34.614Z,95842.84
2022-08-22T04:21:43.798Z,95830.41
2022-08-22T04:24:52.375Z,95834.88
2022-08-22T04:27:25.042Z,95840.03
2022-08-22T04:29:59.637Z,95846.72
2022-08-22T04:32:34.199Z,95848.97
2022-08-22T04:35:08.901Z,95841.63
2022-08-22T04:37:45.104Z,95850.75
2022-08-22T04:40:18.590Z,95845.31
2022-08-22T04:42:53.356Z,95858.13
2022-08-22T04:45:25.038Z,95843.91
2022-08-22T04:47:57.975Z,95848.63
2022-08-22T04:50:32.127Z,95848.09
2022-08-22T04:53:26.416Z,95855.66
2022-08-22T04:56:07.119Z,95843.38
2022-08-22T04:58:43.874Z,95858.50
2022-08-22T05:01:17.514Z,95860.84
2022-08-22T05:03:52.838Z,95866.59
2022-08-22T05:06:26.417Z,95869.53
2022-08-22T05:08:55.077Z,95871.97
2022-08-22T05:11:24.824Z,95871.84
2022-08-22T05:13:56.757Z,95861.97
2022-08-22T05:16:28.672Z,95865.97
2022-08-22T05:19:01.518Z,95863.44
2022-08-22T05:21:36.017Z,95849.59
2022-08-22T05:24:06.075Z,95854.81
2022-08-22T05:26:38.719Z,95860.13
2022-08-22T05:29:09.169Z,95857.78
2022-08-22T05:31:41.587Z,95860.38
2022-08-22T05:34:14.426Z,95864.28
2022-08-22T05:36:49.513Z,95865.88
2022-08-22T05:39:20.371Z,95872.88
2022-08-22T05:41:50.797Z,95877.25
2022-08-22T05:44:21.802Z,95869.50
2022-08-22T05:46:52.163Z,95876.56
2022-08-22T05:49:23.439Z,95877.78
2022-08-22T05:52:02.199Z,95876.78
2022-08-22T05:54:34.659Z,95884.59
2022-08-22T05:57:10.378Z,95884.44
2022-08-22T05:59:43.039Z,95876.66
2022-08-22T06:02:15.722Z,95885.09
2022-08-22T06:04:50.011Z,95883.78
2022-08-22T06:07:23.426Z,95880.19
2022-08-22T06:10:15.290Z,95878.72
2022-08-22T06:12:50.854Z,95885.50
2022-08-22T06:15:22.992Z,95890.44
2022-08-22T06:17:54.931Z,95874.50
2022-08-22T06:20:26.913Z,95893.41
2022-08-22T06:23:01.652Z,95886.56
2022-08-22T06:25:33.366Z,95894.38
2022-08-22T06:28:05.043Z,95890.88
2022-08-22T06:30:33.710Z,95890.63
2022-08-22T06:33:06.291Z,95896.63
2022-08-22T06:35:53.750Z,95884.97
2022-08-22T06:38:28.293Z,95885.91
2022-08-22T06:40:57.942Z,95881.72
2022-08-22T06:43:26.531Z,95883.50
2022-08-22T06:45:54.530Z,95894.78
2022-08-22T06:48:24.431Z,95884.25
2022-08-22T06:50:55.067Z,95879.41
2022-08-22T06:53:28.083Z,95890.75
2022-08-22T06:55:58.402Z,95864.31
2022-08-22T06:58:34.038Z,95876.63
2022-08-22T07:01:12.179Z,95885.44
2022-08-22T07:03:44.240Z,95873.94
2022-08-22T07:06:15.774Z,95867.06
2022-08-22T07:08:45.150Z,95870.84
2022-08-22T07:11:18.329Z,95839.59
2022-08-22T07:13:52.517Z,95860.44
2022-08-22T07:16:30.459Z,95865.63
2022-08-22T07:18:58.657Z,95865.03
2022-08-22T07:21:28.446Z,95862.97
2022-08-22T07:24:01.429Z,95877.59
2022-08-22T07:26:35.480Z,95869.50
2022-08-22T07:29:11.378Z,95874.63
2022-08-22T07:31:46.455Z,95859.16
2022-08-22T07:34:33.067Z,95882.00
2022-08-22T07:37:08.614Z,95877.44
2022-08-22T07:39:44.030Z,95875.44
2022-08-22T07:42:15.969Z,95877.56
2022-08-22T07:45:00.642Z,95880.91
2022-08-22T07:47:41.951Z,95886.84
2022-08-22T07:50:16.213Z,95886.06
2022-08-22T07:52:46.895Z,95890.03
2022-08-22T07:55:20.121Z,95894.25
2022-08-22T07:57:54.362Z,95898.25
2022-08-22T08:00:23.363Z,95897.28
2022-08-22T08:02:53.941Z,95899.81
2022-08-22T08:05:24.426Z,95895.31
2022-08-22T08:07:54.516Z,95894.06
2022-08-22T08:10:31.191Z,95896.41
2022-08-22T08:13:03.887Z,95893.25
2022-08-22T08:15:34.178Z,95903.28
2022-08-22T08:18:05.395Z,95894.47
2022-08-22T08:20:36.236Z,95887.97
2022-08-22T08:23:06.248Z,95899.19
2022-08-22T08:25:53.311Z,95898.44
2022-08-22T08:28:36.151Z,95892.31
2022-08-22T08:31:09.627Z,95895.13
2022-08-22T08:33:40.575Z,95894.06
2022-08-22T08:36:19.738Z,95896.53
2022-08-22T08:38:53.464Z,95896.69
2022-08-22T08:42:02.580Z,95892.63
2022-08-22T08:45:04.722Z,95893.69
2022-08-22T08:47:57.414Z,95877.06
2022-08-22T08:50:44.069Z,95895.13
2022-08-22T08:53:31.641Z,95889.78
2022-08-22T08:56:04.870Z,95891.47
2022-08-22T08:58:43.234Z,95877.91
2022-08-22T09:01:28.781Z,95877.22
2022-08-22T09:04:26.146Z,95884.44
2022-08-22T09:07:24.188Z,95871.22
2022-08-22T09:10:12.220Z,95873.41
2022-08-22T09:13:14.430Z,95882.75
2022-08-22T09:16:04.586Z,95874.66
2022-08-22T09:18:49.517Z,95879.88
2022-08-22T09:21:31.261Z,95875.00
2022-08-22T09:24:49.022Z,95882.41
2022-08-22T09:27:21.440Z,95874.78
2022-08-22T09:29:59.805Z,95868.41
2022-08-22T09:32:42.217Z,95883.25
2022-08-22T09:35:22.865Z,95879.41
2022-08-22T09:38:04.726Z,95878.34
2022-08-22T09:40:40.386Z,95881.13
2022-08-22T09:43:11.780Z,95879.78
2022-08-22T09:45:50.062Z,95871.53
2022-08-22T09:48:40.648Z,95873.69
2022-08-22T09:51:34.375Z,95864.88
2022-08-22T09:54:34.898Z,95865.09
2022-08-22T09:57:18.915Z,95862.19
2022-08-22T10:00:13.820Z,95863.34
2022-08-22T10:02:50.485Z,95858.75
2022-08-22T10:05:40.894Z,95853.28
2022-08-22T10:08:20.290Z,95858.28
2022-08-22T10:11:03.706Z,95854.13
2022-08-22T10:13:46.238Z,95851.84
2022-08-22T10:16:25.278Z,95859.16
2022-08-22T10:19:07.642Z,95844.72
2022-08-22T10:22:06.683Z,95855.03
2022-08-22T10:24:44.722Z,95849.56
2022-08-22T10:27:17.757Z,95853.44
2022-08-22T10:29:58.876Z,95829.53
2022-08-22T10:32:34.869Z,95849.03
2022-08-22T10:35:13.607Z,95838.25
2022-08-22T10:37:54.158Z,95840.03
2022-08-22T10:40:28.709Z,95841.53
2022-08-22T10:43:05.332Z,95837.09
2022-08-22T10:45:36.503Z,95833.75
2022-08-22T10:48:26.744Z,95837.69
2022-08-22T10:51:03.453Z,95827.19
2022-08-22T10:53:52.519Z,95841.47
2022-08-22T10:56:28.256Z,95829.53
2022-08-22T10:59:04.383Z,95826.91
2022-08-22T11:01:41.864Z,95817.41
2022-08-22T11:04:18.081Z,95822.91
2022-08-22T11:06:51.298Z,95827.47
2022-08-22T11:09:31.215Z,95823.97
2022-08-22T11:12:13.178Z,95825.84
2022-08-22T11:15:05.744Z,95820.03
2022-08-22T11:18:17.492Z,95813.53
2022-08-22T11:20:57.648Z,95813.28
2022-08-22T11:23:37.942Z,95810.97
2022-08-22T11:26:14.256Z,95810.13
2022-08-22T11:29:02.775Z,95794.16
2022-08-22T11:31:51.547Z,95800.19
2022-08-22T11:34:36.473Z,95794.28
2022-08-22T11:37:11.058Z,95790.19
2022-08-22T11:39:45.077Z,95792.56
2022-08-22T11:42:22.195Z,95783.19
2022-08-22T11:44:55.598Z,95794.41
2022-08-22T11:47:26.818Z,95777.53
2022-08-22T11:50:01.067Z,95793.16
2022-08-22T11:52:42.647Z,95793.94
2022-08-22T11:55:22.796Z,95799.38
2022-08-22T11:57:52.950Z,95781.78
2022-08-22T12:00:35.251Z,95785.53
2022-08-22T12:03:23.484Z,95784.75
2022-08-22T12:05:55.807Z,95786.97
2022-08-22T12:09:03.671Z,95780.78
2022-08-22T12:11:39.367Z,95774.69
2022-08-22T12:14:17.319Z,95773.88
2022-08-22T12:17:06.920Z,95773.97
2022-08-22T12:19:59.074Z,95770.81
2022-08-22T12:22:49.814Z,95773.41
2022-08-22T12:25:33.232Z,95771.50
2022-08-22T12:28:18.003Z,95765.94
2022-08-22T12:30:55.021Z,95765.50
2022-08-22T12:34:04.249Z,95770.59
2022-08-22T12:36:49.584Z,95763.16
2022-08-22T12:39:32.306Z,95762.53
2022-08-22T12:42:22.429Z,95754.56
2022-08-22T12:45:09.220Z,95756.47
2022-08-22T12:47:50.354Z,95758.72
2022-08-22T12:50:28.639Z,95756.44
2022-08-22T12:53:31.384Z,95757.00
2022-08-22T12:56:32.108Z,95747.69
2022-08-22T12:59:17.810Z,95745.47
2022-08-22T13:01:49.223Z,95743.13
2022-08-22T13:04:32.775Z,95738.25
2022-08-22T13:07:17.370Z,95744.88
2022-08-22T13:09:52.399Z,95740.13
2022-08-22T13:12:28.104Z,95737.75
2022-08-22T13:15:00.848Z,95740.75
2022-08-22T13:17:29.046Z,95742.72
2022-08-22T13:20:08.446Z,95744.16
2022-08-22T13:22:39.196Z,95737.81
2022-08-22T13:25:15.243Z,95739.13
2022-08-22T13:27:55.817Z,95747.44
2022-08-22T13:30:31.479Z,95735.53
2022-08-22T13:33:09.324Z,95734.50
2022-08-22T13:35:44.581Z,95736.84
2022-08-22T13:38:25.502Z,95736.44
2022-08-22T13:40:57.596Z,95732.88
2022-08-22T13:43:29.650Z,95729.56
2022-08-22T13:46:01.905Z,95729.75
2022-08-22T13:48:46.764Z,95728.66
2022-08-22T13:51:21.140Z,95728.06
2022-08-22T13:54:00.818Z,95711.19
2022-08-22T13:56:44.143Z,95726.78
2022-08-22T13:59:49.104Z,95723.91
2022-08-22T14:02:31.052Z,95729.34
2022-08-22T14:05:05.948Z,95721.53
2022-08-22T14:07:38.844Z,95724.00
2022-08-22T14:10:14.913Z,95720.56
2022-08-22T14:13:07.114Z,95718.91
2022-08-22T14:15:45.519Z,95727.84
2022-08-22T14:18:18.552Z,95722.09
2022-08-22T14:20:48.187Z,95721.09
2022-08-22T14:23:27.086Z,95708.94
2022-08-22T14:25:55.388Z,95726.00
2022-08-22T14:28:31.406Z,95712.03
2022-08-22T14:31:03.606Z,95719.63
2022-08-22T14:33:36.371Z,95726.69
2022-08-22T14:36:15.572Z,95726.38
2022-08-22T14:38:49.356Z,95708.53
2022-08-22T14:41:56.392Z,95718.38
2022-08-22T14:44:24.108Z,95710.19
2022-08-22T14:46:56.107Z,95710.34
2022-08-22T14:49:38.209Z,95700.25
2022-08-22T14:52:10.084Z,95702.97
2022-08-22T14:54:47.202Z,95710.81
2022-08-22T14:57:20.602Z,95704.28
2022-08-22T14:59:53.149Z,95699.19
2022-08-22T15:02:27.688Z,95690.59
2022-08-22T15:04:57.597Z,95700.78
2022-08-22T15:07:28.262Z,95694.53
2022-08-22T15:09:58.868Z,95685.25
2022-08-22T15:12:34.246Z,95680.81
2022-08-22T15:15:07.242Z,95674.38
2022-08-22T15:17:43.988Z,95667.06
2022-08-22T15:20:27.773Z,95678.41
2022-08-22T15:22:58.246Z,95672.06
2022-08-22T15:25:31.094Z,95659.31
2022-08-22T15:28:14.268Z,95682.75
2022-08-22T15:30:49.810Z,95669.84
2022-08-22T15:33:24.500Z,95680.59
2022-08-22T15:35:53.923Z,95662.47
2022-08-22T15:38:28.624Z,95670.72
2022-08-22T15:40:57.351Z,95683.84
2022-08-22T15:43:35.055Z,95671.94
2022-08-22T15:46:18.318Z,95668.81
2022-08-22T15:48:56.359Z,95679.47
2022-08-22T15:51:38.780Z,95669.63
2022-08-22T15:54:16.081Z,95671.03
2022-08-22T15:57:13.592Z,95677.63
2022-08-22T15:59:54.127Z,95687.84
2022-08-22T16:02:30.309Z,95670.03
2022-08-22T16:05:23.588Z,95683.94
2022-08-22T16:08:02.659Z,95680.59
2022-08-22T16:10:35.612Z,95680.66
2022-08-22T16:13:14.873Z,95674.41
2022-08-22T16:15:58.858Z,95678.81
2022-08-22T16:19:03.596Z,95681.34
2022-08-22T16:22:10.568Z,95682.56
2022-08-22T16:25:01.208Z,95680.91
2022-08-22T16:27:29.367Z,95672.16
2022-08-22T16:30:09.554Z,95664.06
2022-08-22T16:32:38.187Z,95667.38
2022-08-22T16:35:06.176Z,95669.78
2022-08-22T16:37:56.052Z,95681.16
2022-08-22T16:40:26.743Z,95674.97
2022-08-22T16:43:20.728Z,95684.31
2022-08-22T16:45:49.428Z,95675.53
2022-08-22T16:48:31.928Z,95680.50
2022-08-22T16:51:13.382Z,95670.63
2022-08-22T16:54:05.481Z,95676.56
2022-08-22T16:56:40.423Z,95672.25
2022-08-22T16:59:26.465Z,95670.69
2022-08-22T17:02:12.301Z,95674.81
2022-08-22T17:04:52.396Z,95685.06
2022-08-22T17:07:34.214Z,95676.88
2022-08-22T17:10:23.636Z,95678.38
2022-08-22T17:13:10.775Z,95672.13
2022-08-22T17:15:53.644Z,95670.31
2022-08-22T17:18:43.574Z,95665.22
2022-08-22T17:21:17.575Z,95647.44
2022-08-22T17:23:55.789Z,95663.44
2022-08-22T17:26:36.092Z,95659.34
2022-08-22T17:29:12.579Z,95663.75
2022-08-22T17:31:51.140Z,95669.03
2022-08-22T17:34:29.942Z,95670.81
2022-08-22T17:37:08.183Z,95669.72
2022-08-22T17:39:58.345Z,95683.63
2022-08-22T17:42:42.498Z,95680.41
2022-08-22T17:45:21.653Z,95677.91
2022-08-22T17:47:59.529Z,95676.69
2022-08-22T17:50:35.515Z,95682.69
2022-08-22T17:53:08.389Z,95682.25
2022-08-22T17:55:53.972Z,95683.81
2022-08-22T17:58:37.535Z,95689.91
2022-08-22T18:01:15.175Z,95688.09
2022-08-22T18:03:51.390Z,95696.31
2022-08-22T18:06:22.595Z,95692.34
2022-08-22T18:11:48.163Z,95689.50
2022-08-22T18:14:28.918Z,95695.75
2022-08-22T18:16:59.095Z,95695.41
2022-08-22T18:19:41.251Z,95692.31
2022-08-22T18:22:14.088Z,95692.41
2022-08-22T18:24:50.287Z,95699.84
2022-08-22T18:27:34.368Z,95699.88
2022-08-22T18:30:16.276Z,95687.13
2022-08-22T18:32:52.240Z,95696.56
2022-08-22T18:35:24.036Z,95689.44
2022-08-22T18:38:00.784Z,95695.31
2022-08-22T18:40:43.459Z,95700.28
2022-08-22T18:43:23.773Z,95696.56
2022-08-22T18:46:04.110Z,95686.25
2022-08-22T18:48:54.405Z,95705.09
2022-08-22T18:51:31.225Z,95709.03
2022-08-22T18:54:20.422Z,95708.97
2022-08-22T18:56:54.510Z,95710.38
2022-08-22T18:59:42.734Z,95716.84
2022-08-22T19:02:26.763Z,95716.38
2022-08-22T19:05:24.776Z,95711.56
2022-08-22T19:08:28.927Z,95727.88
2022-08-22T19:11:14.247Z,95731.13
2022-08-22T19:13:56.354Z,95677.22
2022-08-22T19:16:44.564Z,95686.88
2022-08-22T19:19:18.368Z,95726.16
2022-08-22T19:22:21.705Z,95738.16
2022-08-22T19:25:12.548Z,95740.06
2022-08-22T19:27:41.946Z,95749.75
2022-08-22T19:30:39.179Z,95745.59
2022-08-22T19:33:10.456Z,95755.78
2022-08-22T19:35:44.921Z,95755.31
2022-08-22T19:38:33.137Z,95744.59
2022-08-22T19:41:01.594Z,95753.63
2022-08-22T19:43:37.832Z,95740.09
2022-08-22T19:46:08.512Z,95758.78
2022-08-22T19:48:46.687Z,95750.34
2022-08-22T19:51:25.909Z,95764.44
2022-08-22T19:54:07.744Z,95753.94
2022-08-22T19:56:48.519Z,95728.66
2022-08-22T19:59:29.325Z,95753.28
2022-08-22T20:02:07.242Z,95754.50
2022-08-22T20:04:55.910Z,95762.75
2022-08-22T20:07:33.795Z,95764.59
2022-08-22T20:10:16.588Z,95763.41
2022-08-22T20:13:00.958Z,95770.16
2022-08-22T20:15:30.264Z,95767.22
2022-08-22T20:18:47.319Z,95772.38
2022-08-22T20:21:01.569Z,95767.13
2022-08-22T20:23:32.060Z,95764.13
2022-08-22T20:26:00.180Z,95764.13
2022-08-22T20:28:40.826Z,95748.47
2022-08-22T20:31:20.712Z,95766.41
2022-08-22T20:33:54.540Z,95765.25
2022-08-22T20:36:28.490Z,95770.19
2022-08-22T20:39:01.101Z,95763.78
2022-08-22T20:41:34.312Z,95763.41
2022-08-22T20:44:11.076Z,95765.56
2022-08-22T20:46:47.724Z,95766.56
2022-08-22T20:49:24.213Z,95764.50
2022-08-22T20:51:56.397Z,95756.53
2022-08-22T20:54:25.960Z,95754.03
2022-08-22T20:56:57.115Z,95756.06
2022-08-22T20:59:29.799Z,95737.91
2022-08-22T21:02:05.547Z,95749.59
2022-08-22T21:04:45.453Z,95755.28
2022-08-22T21:07:21.493Z,95764.50
2022-08-22T21:10:12.787Z,95761.53
2022-08-22T21:12:40.541Z,95752.78
2022-08-22T21:15:09.104Z,95751.84
2022-08-22T21:17:39.440Z,95754.38
2022-08-22T21:20:19.044Z,95741.00
2022-08-22T21:22:48.576Z,95752.34
2022-08-22T21:25:16.111Z,95757.13
2022-08-22T21:27:47.959Z,95756.81
2022-08-22T21:30:24.291Z,95751.56
2022-08-22T21:32:55.942Z,95760.97
2022-08-22T21:35:27.949Z,95736.22
2022-08-22T21:37:57.567Z,95759.34
2022-08-22T21:40:31.808Z,95756.13
2022-08-22T21:43:02.411Z,95764.28
2022-08-22T21:45:33.207Z,95749.34
2022-08-22T21:48:01.924Z,95758.03
2022-08-22T21:50:37.774Z,95766.13
2022-08-22T21:53:12.114Z,95762.22
2022-08-22T21:55:44.192Z,95729.47
2022-08-22T21:58:35.171Z,95759.72
2022-08-22T22:01:28.505Z,95756.38
2022-08-22T22:03:57.485Z,95756.59
2022-08-22T22:06:24.965Z,95752.28
2022-08-22T22:08:53.814Z,95755.56
2022-08-22T22:11:21.407Z,95739.72
2022-08-22T22:13:49.157Z,95756.69
2022-08-22T22:16:23.779Z,95761.47
2022-08-22T22:18:51.287Z,95753.38
2022-08-22T22:21:18.886Z,95768.22
2022-08-22T22:23:46.392Z,95757.69
2022-08-22T22:26:15.306Z,95760.81
2022-08-22T22:28:47.216Z,95770.28
2022-08-22T22:31:16.244Z,95772.84
2022-08-22T22:33:44.432Z,95770.88
2022-08-22T22:36:16.994Z,95772.31
2022-08-22T22:38:45.140Z,95773.03
2022-08-22T22:41:12.879Z,95772.38
2022-08-22T22:43:41.723Z,95773.34
2022-08-22T22:46:09.540Z,95780.31
2022-08-22T22:48:37.292Z,95759.63
2022-08-22T22:51:09.432Z,95771.88
2022-08-22T22:53:40.417Z,95771.81
2022-08-22T22:56:13.064Z,95776.84
2022-08-22T22:58:42.996Z,95776.34
2022-08-22T23:01:11.803Z,95772.44
2022-08-22T23:03:39.516Z,95768.97
2022-08-22T23:06:12.134Z,95782.03
2022-08-22T23:08:39.909Z,95776.31
2022-08-22T23:11:11.209Z,95781.25
2022-08-22T23:13:39.662Z,95774.84
2022-08-22T23:16:16.214Z,95773.78
2022-08-22T23:18:43.887Z,95773.63
2022-08-22T23:21:13.276Z,95774.84
2022-08-22T23:23:41.368Z,95770.56
2022-08-22T23:26:09.494Z,95772.81
2022-08-22T23:28:37.078Z,95783.06
2022-08-22T23:31:14.376Z,95785.97
2022-08-22T23:33:42.159Z,95776.56
2022-08-22T23:36:15.499Z,95783.59
2022-08-22T23:38:44.061Z,95783.91
2022-08-22T23:41:13.537Z,95776.69
2022-08-22T23:43:44.012Z,95783.81
2022-08-22T23:46:13.923Z,95781.19
2022-08-22T23:48:41.700Z,95766.78
2022-08-22T23:51:11.184Z,95778.59
2022-08-22T23:53:39.144Z,95787.63
2022-08-22T23:56:19.879Z,95775.06
2022-08-22T23:58:49.003Z,95778.50
